sensor_id;sensor_type;location;lat;lon;timestamp;P1;durP1;ratioP1;P2;durP2;ratioP2
43803;SDS011;29430;52.924;-2.388;2022-08-04T00:04:00;4.45;;;0.38;;
43803;SDS011;29430;52.924;-2.388;2022-08-04T00:08:58;3.50;;;0.40;;
43803;SDS011;29430;52.924;-2.388;2022-08-04T00:14:02;4.53;;;0.38;;
43803;SDS011;29430;52.924;-2.388;2022-08-04T00:19:00;2.80;;;0.35;;
43803;SDS011;29430;52.924;-2.388;2022-08-04T00:23:54;3.10;;;0.30;;
43803;SDS011;29430;52.924;-2.388;2022-08-04T00:29:02;2.85;;;0.30;;
43803;SDS011;29430;52.924;-2.388;2022-08-04T00:33:56;5.72;;;0.63;;
43803;SDS011;29430;52.924;-2.388;2022-08-04T00:38:48;3.30;;;0.30;;
43803;SDS011;29430;52.924;-2.388;2022-08-04T00:59:42;5.63;;;0.50;;
43803;SDS011;29430;52.924;-2.388;2022-08-04T01:14:46;5.70;;;0.50;;
43803;SDS011;29430;52.924;-2.388;2022-08-04T01:20:00;6.50;;;0.60;;
43803;SDS011;29430;52.924;-2.388;2022-08-04T01:25:09;5.32;;;0.50;;
43803;SDS011;29430;52.924;-2.388;2022-08-04T01:30:14;6.55;;;0.43;;
43803;SDS011;29430;52.924;-2.388;2022-08-04T01:35:18;4.85;;;0.40;;
43803;SDS011;29430;52.924;-2.388;2022-08-04T01:40:37;4.72;;;0.40;;
43803;SDS011;29430;52.924;-2.388;2022-08-04T01:45:31;9.27;;;0.57;;
43803;SDS011;29430;52.924;-2.388;2022-08-04T01:50:26;6.53;;;0.50;;
43803;SDS011;29430;52.924;-2.388;2022-08-04T01:55:25;5.63;;;0.50;;
43803;SDS011;29430;52.924;-2.388;2022-08-04T02:00:39;5.05;;;0.47;;
43803;SDS011;29430;52.924;-2.388;2022-08-04T02:16:00;6.65;;;0.55;;
43803;SDS011;29430;52.924;-2.388;2022-08-04T02:25:56;6.72;;;0.45;;
43803;SDS011;29430;52.924;-2.388;2022-08-04T02:35:53;2.95;;;0.40;;
43803;SDS011;29430;52.924;-2.388;2022-08-04T02:40:52;3.20;;;0.63;;
43803;SDS011;29430;52.924;-2.388;2022-08-04T02:45:50;3.38;;;0.38;;
43803;SDS011;29430;52.924;-2.388;2022-08-04T02:50:46;7.25;;;0.50;;
43803;SDS011;29430;52.924;-2.388;2022-08-04T02:55:42;7.15;;;0.95;;
43803;SDS011;29430;52.924;-2.388;2022-08-04T03:00:43;2.63;;;0.43;;
43803;SDS011;29430;52.924;-2.388;2022-08-04T03:05:40;4.47;;;0.65;;
43803;SDS011;29430;52.924;-2.388;2022-08-04T03:26:25;2.90;;;0.80;;
43803;SDS011;29430;52.924;-2.388;2022-08-04T03:57:57;5.63;;;0.50;;
43803;SDS011;29430;52.924;-2.388;2022-08-04T04:13:59;5.07;;;0.60;;
43803;SDS011;29430;52.924;-2.388;2022-08-04T04:55:41;3.67;;;0.57;;
43803;SDS011;29430;52.924;-2.388;2022-08-04T05:11:03;2.97;;;0.60;;
43803;SDS011;29430;52.924;-2.388;2022-08-04T05:16:35;3.50;;;0.60;;
43803;SDS011;29430;52.924;-2.388;2022-08-04T05:26:32;3.25;;;0.55;;
43803;SDS011;29430;52.924;-2.388;2022-08-04T05:31:31;3.58;;;0.70;;
43803;SDS011;29430;52.924;-2.388;2022-08-04T05:36:32;2.78;;;0.50;;
43803;SDS011;29430;52.924;-2.388;2022-08-04T05:41:32;4.05;;;0.60;;
43803;SDS011;29430;52.924;-2.388;2022-08-04T05:46:38;2.53;;;0.40;;
43803;SDS011;29430;52.924;-2.388;2022-08-04T05:51:31;3.55;;;0.63;;
43803;SDS011;29430;52.924;-2.388;2022-08-04T05:56:24;2.97;;;0.60;;
43803;SDS011;29430;52.924;-2.388;2022-08-04T06:01:16;5.15;;;0.40;;
43803;SDS011;29430;52.924;-2.388;2022-08-04T06:06:10;2.85;;;0.40;;
43803;SDS011;29430;52.924;-2.388;2022-08-04T06:11:04;7.30;;;0.50;;
43803;SDS011;29430;52.924;-2.388;2022-08-04T06:15:59;1.63;;;0.30;;
43803;SDS011;29430;52.924;-2.388;2022-08-04T06:20:52;0.93;;;0.25;;
43803;SDS011;29430;52.924;-2.388;2022-08-04T06:25:50;1.38;;;0.22;;
43803;SDS011;29430;52.924;-2.388;2022-08-04T06:30:45;3.05;;;0.20;;
43803;SDS011;29430;52.924;-2.388;2022-08-04T06:35:40;1.48;;;0.20;;
43803;SDS011;29430;52.924;-2.388;2022-08-04T06:40:32;1.42;;;0.20;;
43803;SDS011;29430;52.924;-2.388;2022-08-04T06:45:26;1.20;;;0.13;;
43803;SDS011;29430;52.924;-2.388;2022-08-04T06:50:18;1.15;;;0.10;;
43803;SDS011;29430;52.924;-2.388;2022-08-04T06:55:32;1.90;;;0.15;;
43803;SDS011;29430;52.924;-2.388;2022-08-04T07:00:24;2.33;;;0.10;;
43803;SDS011;29430;52.924;-2.388;2022-08-04T07:05:17;0.75;;;0.10;;
43803;SDS011;29430;52.924;-2.388;2022-08-04T07:10:10;3.40;;;0.30;;
43803;SDS011;29430;52.924;-2.388;2022-08-04T07:15:10;1.77;;;0.10;;
43803;SDS011;29430;52.924;-2.388;2022-08-04T07:20:04;1.63;;;0.20;;
43803;SDS011;29430;52.924;-2.388;2022-08-04T07:24:57;2.08;;;0.08;;
43803;SDS011;29430;52.924;-2.388;2022-08-04T07:29:52;1.98;;;0.10;;
43803;SDS011;29430;52.924;-2.388;2022-08-04T07:34:44;2.28;;;0.20;;
43803;SDS011;29430;52.924;-2.388;2022-08-04T07:39:40;1.63;;;0.17;;
43803;SDS011;29430;52.924;-2.388;2022-08-04T07:44:38;1.15;;;0.10;;
43803;SDS011;29430;52.924;-2.388;2022-08-04T07:49:30;3.35;;;0.20;;
43803;SDS011;29430;52.924;-2.388;2022-08-04T07:54:42;0.93;;;0.15;;
43803;SDS011;29430;52.924;-2.388;2022-08-04T07:59:35;1.33;;;0.20;;
43803;SDS011;29430;52.924;-2.388;2022-08-04T08:04:27;2.95;;;0.20;;
43803;SDS011;29430;52.924;-2.388;2022-08-04T08:09:20;0.80;;;0.10;;
43803;SDS011;29430;52.924;-2.388;2022-08-04T08:14:12;2.17;;;0.20;;
43803;SDS011;29430;52.924;-2.388;2022-08-04T08:19:05;1.08;;;0.15;;
43803;SDS011;29430;52.924;-2.388;2022-08-04T08:23:58;1.42;;;0.20;;
43803;SDS011;29430;52.924;-2.388;2022-08-04T08:28:50;1.33;;;0.20;;
43803;SDS011;29430;52.924;-2.388;2022-08-04T08:33:42;0.98;;;0.10;;
43803;SDS011;29430;52.924;-2.388;2022-08-04T08:59:59;1.58;;;0.20;;
43803;SDS011;29430;52.924;-2.388;2022-08-04T09:10:46;3.57;;;0.27;;
43803;SDS011;29430;52.924;-2.388;2022-08-04T09:15:56;3.22;;;0.25;;
43803;SDS011;29430;52.924;-2.388;2022-08-04T09:21:09;6.03;;;0.30;;
43803;SDS011;29430;52.924;-2.388;2022-08-04T09:26:10;4.32;;;0.30;;
43803;SDS011;29430;52.924;-2.388;2022-08-04T09:31:22;1.73;;;0.20;;
43803;SDS011;29430;52.924;-2.388;2022-08-04T09:36:47;0.47;;;0.10;;
43803;SDS011;29430;52.924;-2.388;2022-08-04T10:02:22;2.17;;;0.20;;
43803;SDS011;29430;52.924;-2.388;2022-08-04T10:07:37;3.25;;;0.20;;
43803;SDS011;29430;52.924;-2.388;2022-08-04T10:12:37;0.45;;;0.10;;
43803;SDS011;29430;52.924;-2.388;2022-08-04T10:23:04;1.42;;;0.20;;
43803;SDS011;29430;52.924;-2.388;2022-08-04T10:28:04;0.70;;;0.20;;
43803;SDS011;29430;52.924;-2.388;2022-08-04T10:33:10;1.02;;;0.20;;
43803;SDS011;29430;52.924;-2.388;2022-08-04T10:53:37;0.85;;;0.10;;
43803;SDS011;29430;52.924;-2.388;2022-08-04T10:58:32;0.28;;;0.10;;
43803;SDS011;29430;52.924;-2.388;2022-08-04T11:03:55;0.57;;;0.10;;
43803;SDS011;29430;52.924;-2.388;2022-08-04T11:08:54;0.40;;;0.10;;
43803;SDS011;29430;52.924;-2.388;2022-08-04T11:24:24;0.60;;;0.10;;
43803;SDS011;29430;52.924;-2.388;2022-08-04T11:29:45;0.80;;;0.10;;
43803;SDS011;29430;52.924;-2.388;2022-08-04T11:34:59;1.42;;;0.10;;
43803;SDS011;29430;52.924;-2.388;2022-08-04T11:45:06;1.42;;;0.10;;
43803;SDS011;29430;52.924;-2.388;2022-08-04T11:50:13;2.75;;;0.20;;
43803;SDS011;29430;52.924;-2.388;2022-08-04T11:55:08;2.05;;;0.20;;
43803;SDS011;29430;52.924;-2.388;2022-08-04T12:00:04;1.27;;;0.20;;
43803;SDS011;29430;52.924;-2.388;2022-08-04T12:05:00;1.33;;;0.10;;
43803;SDS011;29430;52.924;-2.388;2022-08-04T12:20:05;1.67;;;0.20;;
43803;SDS011;29430;52.924;-2.388;2022-08-04T12:25:23;1.50;;;0.15;;
43803;SDS011;29430;52.924;-2.388;2022-08-04T12:30:20;2.33;;;0.20;;
43803;SDS011;29430;52.924;-2.388;2022-08-04T12:35:34;1.30;;;0.20;;
43803;SDS011;29430;52.924;-2.388;2022-08-04T12:40:56;1.05;;;0.20;;
43803;SDS011;29430;52.924;-2.388;2022-08-04T12:45:50;1.42;;;0.20;;
43803;SDS011;29430;52.924;-2.388;2022-08-04T12:50:49;3.47;;;0.30;;
43803;SDS011;29430;52.924;-2.388;2022-08-04T12:55:47;2.35;;;0.40;;
43803;SDS011;29430;52.924;-2.388;2022-08-04T13:00:56;2.55;;;0.30;;
43803;SDS011;29430;52.924;-2.388;2022-08-04T13:06:14;1.50;;;0.20;;
43803;SDS011;29430;52.924;-2.388;2022-08-04T13:11:13;1.55;;;0.10;;
43803;SDS011;29430;52.924;-2.388;2022-08-04T13:16:08;0.52;;;0.10;;
43803;SDS011;29430;52.924;-2.388;2022-08-04T13:21:14;2.13;;;0.20;;
43803;SDS011;29430;52.924;-2.388;2022-08-04T13:26:13;0.63;;;0.10;;
43803;SDS011;29430;52.924;-2.388;2022-08-04T13:31:26;1.15;;;0.10;;
43803;SDS011;29430;52.924;-2.388;2022-08-04T13:36:26;3.72;;;0.20;;
43803;SDS011;29430;52.924;-2.388;2022-08-04T13:41:20;1.98;;;0.28;;
43803;SDS011;29430;52.924;-2.388;2022-08-04T13:46:19;1.02;;;0.10;;
43803;SDS011;29430;52.924;-2.388;2022-08-04T13:51:19;0.63;;;0.10;;
43803;SDS011;29430;52.924;-2.388;2022-08-04T13:56:35;1.63;;;0.10;;
43803;SDS011;29430;52.924;-2.388;2022-08-04T14:01:30;0.52;;;0.10;;
43803;SDS011;29430;52.924;-2.388;2022-08-04T14:11:30;1.80;;;0.13;;
43803;SDS011;29430;52.924;-2.388;2022-08-04T14:21:53;2.85;;;0.15;;
43803;SDS011;29430;52.924;-2.388;2022-08-04T14:26:44;1.17;;;0.15;;
43803;SDS011;29430;52.924;-2.388;2022-08-04T14:31:36;1.63;;;0.20;;
43803;SDS011;29430;52.924;-2.388;2022-08-04T14:36:47;1.67;;;0.10;;
43803;SDS011;29430;52.924;-2.388;2022-08-04T14:41:59;3.10;;;0.20;;
43803;SDS011;29430;52.924;-2.388;2022-08-04T14:46:52;3.47;;;0.22;;
43803;SDS011;29430;52.924;-2.388;2022-08-04T14:51:50;1.25;;;0.17;;
43803;SDS011;29430;52.924;-2.388;2022-08-04T14:56:53;0.22;;;0.10;;
43803;SDS011;29430;52.924;-2.388;2022-08-04T15:01:46;3.42;;;0.10;;
43803;SDS011;29430;52.924;-2.388;2022-08-04T15:06:51;0.70;;;0.10;;
43803;SDS011;29430;52.924;-2.388;2022-08-04T15:11:43;1.80;;;0.10;;
43803;SDS011;29430;52.924;-2.388;2022-08-04T15:16:35;1.23;;;0.10;;
43803;SDS011;29430;52.924;-2.388;2022-08-04T15:21:44;0.77;;;0.00;;
43803;SDS011;29430;52.924;-2.388;2022-08-04T15:26:37;0.55;;;0.00;;
43803;SDS011;29430;52.924;-2.388;2022-08-04T15:31:38;1.70;;;0.10;;
43803;SDS011;29430;52.924;-2.388;2022-08-04T15:36:52;1.77;;;0.20;;
43803;SDS011;29430;52.924;-2.388;2022-08-04T15:47:09;0.70;;;0.10;;
43803;SDS011;29430;52.924;-2.388;2022-08-04T15:57:04;1.17;;;0.10;;
43803;SDS011;29430;52.924;-2.388;2022-08-04T16:07:34;1.95;;;0.15;;
43803;SDS011;29430;52.924;-2.388;2022-08-04T16:12:53;1.83;;;0.17;;
43803;SDS011;29430;52.924;-2.388;2022-08-04T16:17:47;2.90;;;0.10;;
43803;SDS011;29430;52.924;-2.388;2022-08-04T16:22:39;1.15;;;0.20;;
43803;SDS011;29430;52.924;-2.388;2022-08-04T16:27:39;2.47;;;0.20;;
43803;SDS011;29430;52.924;-2.388;2022-08-04T16:32:38;3.22;;;0.10;;
43803;SDS011;29430;52.924;-2.388;2022-08-04T16:37:37;1.33;;;0.10;;
43803;SDS011;29430;52.924;-2.388;2022-08-04T16:42:33;3.13;;;0.10;;
43803;SDS011;29430;52.924;-2.388;2022-08-04T16:52:51;0.77;;;0.10;;
43803;SDS011;29430;52.924;-2.388;2022-08-04T16:57:45;2.70;;;0.10;;
43803;SDS011;29430;52.924;-2.388;2022-08-04T17:02:37;1.27;;;0.10;;
43803;SDS011;29430;52.924;-2.388;2022-08-04T17:07:30;1.27;;;0.10;;
43803;SDS011;29430;52.924;-2.388;2022-08-04T17:13:01;1.80;;;0.10;;
43803;SDS011;29430;52.924;-2.388;2022-08-04T17:18:31;0.40;;;0.10;;
43803;SDS011;29430;52.924;-2.388;2022-08-04T17:23:34;1.15;;;0.10;;
43803;SDS011;29430;52.924;-2.388;2022-08-04T17:28:48;1.02;;;0.20;;
43803;SDS011;29430;52.924;-2.388;2022-08-04T17:33:46;1.67;;;0.20;;
43803;SDS011;29430;52.924;-2.388;2022-08-04T17:38:47;1.50;;;0.20;;
43803;SDS011;29430;52.924;-2.388;2022-08-04T17:44:00;2.55;;;0.20;;
43803;SDS011;29430;52.924;-2.388;2022-08-04T17:54:10;1.65;;;0.20;;
43803;SDS011;29430;52.924;-2.388;2022-08-04T18:04:35;1.25;;;0.20;;
43803;SDS011;29430;52.924;-2.388;2022-08-04T18:09:57;1.75;;;0.10;;
43803;SDS011;29430;52.924;-2.388;2022-08-04T18:15:21;1.30;;;0.10;;
43803;SDS011;29430;52.924;-2.388;2022-08-04T18:20:30;1.40;;;0.10;;
43803;SDS011;29430;52.924;-2.388;2022-08-04T18:25:23;0.90;;;0.10;;
43803;SDS011;29430;52.924;-2.388;2022-08-04T18:30:35;1.50;;;0.20;;
43803;SDS011;29430;52.924;-2.388;2022-08-04T18:35:45;1.77;;;0.10;;
43803;SDS011;29430;52.924;-2.388;2022-08-04T18:40:57;1.65;;;0.20;;
43803;SDS011;29430;52.924;-2.388;2022-08-04T18:45:49;2.47;;;0.10;;
43803;SDS011;29430;52.924;-2.388;2022-08-04T18:51:01;2.58;;;0.15;;
43803;SDS011;29430;52.924;-2.388;2022-08-04T18:56:13;5.75;;;0.30;;
43803;SDS011;29430;52.924;-2.388;2022-08-04T19:01:20;2.53;;;0.20;;
43803;SDS011;29430;52.924;-2.388;2022-08-04T19:06:33;0.73;;;0.10;;
43803;SDS011;29430;52.924;-2.388;2022-08-04T19:11:27;1.20;;;0.20;;
43803;SDS011;29430;52.924;-2.388;2022-08-04T19:16:39;3.30;;;0.50;;
43803;SDS011;29430;52.924;-2.388;2022-08-04T19:21:36;2.22;;;0.10;;
43803;SDS011;29430;52.924;-2.388;2022-08-04T19:26:47;0.88;;;0.17;;
43803;SDS011;29430;52.924;-2.388;2022-08-04T19:31:40;1.17;;;0.10;;
43803;SDS011;29430;52.924;-2.388;2022-08-04T19:36:32;1.67;;;0.10;;
43803;SDS011;29430;52.924;-2.388;2022-08-04T19:41:24;3.35;;;0.15;;
43803;SDS011;29430;52.924;-2.388;2022-08-04T19:46:17;1.52;;;0.20;;
43803;SDS011;29430;52.924;-2.388;2022-08-04T19:51:09;2.10;;;0.10;;
43803;SDS011;29430;52.924;-2.388;2022-08-04T19:56:01;2.20;;;0.20;;
43803;SDS011;29430;52.924;-2.388;2022-08-04T20:00:53;1.20;;;0.20;;
43803;SDS011;29430;52.924;-2.388;2022-08-04T20:05:45;0.70;;;0.10;;
43803;SDS011;29430;52.924;-2.388;2022-08-04T20:10:45;1.35;;;0.10;;
43803;SDS011;29430;52.924;-2.388;2022-08-04T20:15:42;2.72;;;0.30;;
43803;SDS011;29430;52.924;-2.388;2022-08-04T20:20:48;2.15;;;0.30;;
43803;SDS011;29430;52.924;-2.388;2022-08-04T20:25:40;0.73;;;0.10;;
43803;SDS011;29430;52.924;-2.388;2022-08-04T20:30:37;1.80;;;0.20;;
43803;SDS011;29430;52.924;-2.388;2022-08-04T20:35:29;1.50;;;0.10;;
43803;SDS011;29430;52.924;-2.388;2022-08-04T20:40:21;1.75;;;0.20;;
43803;SDS011;29430;52.924;-2.388;2022-08-04T20:45:13;2.88;;;0.20;;
43803;SDS011;29430;52.924;-2.388;2022-08-04T20:50:07;1.27;;;0.20;;
43803;SDS011;29430;52.924;-2.388;2022-08-04T20:55:00;2.15;;;0.30;;
43803;SDS011;29430;52.924;-2.388;2022-08-04T20:59:52;3.53;;;0.20;;
43803;SDS011;29430;52.924;-2.388;2022-08-04T21:04:50;2.78;;;0.20;;
43803;SDS011;29430;52.924;-2.388;2022-08-04T21:09:42;0.60;;;0.13;;
43803;SDS011;29430;52.924;-2.388;2022-08-04T21:14:41;0.88;;;0.10;;
43803;SDS011;29430;52.924;-2.388;2022-08-04T21:19:38;2.10;;;0.13;;
43803;SDS011;29430;52.924;-2.388;2022-08-04T21:24:33;0.98;;;0.20;;
43803;SDS011;29430;52.924;-2.388;2022-08-04T21:29:26;1.42;;;0.20;;
43803;SDS011;29430;52.924;-2.388;2022-08-04T21:34:25;2.17;;;0.10;;
43803;SDS011;29430;52.924;-2.388;2022-08-04T21:39:30;2.92;;;0.20;;
43803;SDS011;29430;52.924;-2.388;2022-08-04T21:44:22;0.77;;;0.20;;
43803;SDS011;29430;52.924;-2.388;2022-08-04T21:49:17;2.47;;;0.22;;
43803;SDS011;29430;52.924;-2.388;2022-08-04T21:54:10;4.47;;;0.17;;
43803;SDS011;29430;52.924;-2.388;2022-08-04T21:59:07;2.75;;;0.20;;
43803;SDS011;29430;52.924;-2.388;2022-08-04T22:04:04;2.78;;;0.28;;
43803;SDS011;29430;52.924;-2.388;2022-08-04T22:08:58;1.83;;;0.20;;
43803;SDS011;29430;52.924;-2.388;2022-08-04T22:13:51;2.53;;;0.35;;
43803;SDS011;29430;52.924;-2.388;2022-08-04T22:19:02;1.65;;;0.10;;
43803;SDS011;29430;52.924;-2.388;2022-08-04T22:23:55;2.47;;;0.40;;
43803;SDS011;29430;52.924;-2.388;2022-08-04T22:28:53;2.40;;;0.20;;
43803;SDS011;29430;52.924;-2.388;2022-08-04T22:33:46;2.53;;;0.20;;
43803;SDS011;29430;52.924;-2.388;2022-08-04T22:38:46;2.13;;;0.20;;
43803;SDS011;29430;52.924;-2.388;2022-08-04T22:43:56;1.65;;;0.20;;
43803;SDS011;29430;52.924;-2.388;2022-08-04T22:48:48;1.05;;;0.20;;
43803;SDS011;29430;52.924;-2.388;2022-08-04T22:53:41;1.15;;;0.20;;
43803;SDS011;29430;52.924;-2.388;2022-08-04T22:58:42;2.75;;;0.22;;
43803;SDS011;29430;52.924;-2.388;2022-08-04T23:03:42;3.65;;;0.30;;
43803;SDS011;29430;52.924;-2.388;2022-08-04T23:08:46;2.35;;;0.20;;
43803;SDS011;29430;52.924;-2.388;2022-08-04T23:13:38;1.48;;;0.20;;
43803;SDS011;29430;52.924;-2.388;2022-08-04T23:18:30;1.45;;;0.20;;
43803;SDS011;29430;52.924;-2.388;2022-08-04T23:23:22;2.75;;;0.40;;
43803;SDS011;29430;52.924;-2.388;2022-08-04T23:28:16;2.67;;;0.30;;
43803;SDS011;29430;52.924;-2.388;2022-08-04T23:33:07;1.35;;;0.20;;
43803;SDS011;29430;52.924;-2.388;2022-08-04T23:38:01;0.80;;;0.20;;
43803;SDS011;29430;52.924;-2.388;2022-08-04T23:43:13;2.78;;;0.65;;
43803;SDS011;29430;52.924;-2.388;2022-08-04T23:48:08;1.65;;;0.30;;
43803;SDS011;29430;52.924;-2.388;2022-08-04T23:53:09;2.33;;;0.30;;
43803;SDS011;29430;52.924;-2.388;2022-08-04T23:58:08;1.35;;;0.20;;
